NGS weather

Nagasaki Airport
Nagasaki, Nagasaki Prefecture, Japan

Public forecast

Using degrees Celsius for public forecast. Weather courtesy of forecast.io.

Current aviation weather report (METAR) for Nagasaki Airport

Retrieved 2019/10/21 06:00 UTC (30 minutes ago):

RJFU 210600Z 04008KT 360V100 9999 FEW050 26/15 Q1010

Aviation forecast (TAF) for Nagasaki Airport

Retrieved 2019/10/21 06:30 UTC (0 seconds ago):

TAF RJFU 210506Z 2106/2212 36012KT 9999 FEW040 BECMG 2114/2116 14004KT BECMG 2200/2203 02010KT